Time;durP1;ratioP1;P1;durP2;ratioP2;P2;SDS_P1;SDS_P2;PMS_P1;PMS_P2;Temp;Humidity;BMP_temperature;BMP_pressure;BME280_temperature;BME280_humidity;BME280_pressure;Samples;Min_cycle;Max_cycle;Signal;HPM_P1;HPM_P2
2021/07/30 00:02:36;;;;;;;;;;;;;;;19.53;55.53;99787.81;10307274;28;20033;-69
2021/07/30 00:07:39;;;;;;;;;;;;;;;19.43;56.30;99782.72;10303782;28;19953;-68
2021/07/30 00:12:40;;;;;;;;;;;;;;;19.39;56.15;99786.00;10305761;28;20526;-68
2021/07/30 00:17:42;;;;;;;;;;;;;;;19.32;56.66;99780.56;10313528;28;20590;-68
2021/07/30 00:22:43;;;;;;;;;;;;;;;19.21;57.07;99783.75;10302714;28;22222;-68
2021/07/30 00:27:45;;;;;;;;;;;;;;;19.19;57.28;99792.03;10300361;28;20012;-68
2021/07/30 00:32:46;;;;;;;;;;;;;;;19.11;57.70;99794.00;10307945;28;20000;-68
2021/07/30 00:37:48;;;;;;;;;;;;;;;19.05;57.96;99790.22;10311245;28;20032;-68
2021/07/30 00:42:52;;;;;;;;;;;;;;;19.00;58.35;99788.09;10303435;28;19922;-68
2021/07/30 00:47:53;;;;;;;;;;;;;;;18.98;58.54;99784.75;10305208;28;19972;-68
2021/07/30 00:52:55;;;;;;;;;;;;;;;18.95;58.15;99795.09;10307569;28;20021;-68
2021/07/30 00:57:56;;;;;;;;;;;;;;;18.88;58.28;99789.59;10306776;28;20373;-68
2021/07/30 01:03:00;;;;;;;;;;;;;;;18.82;58.73;99785.75;10310736;28;20419;-68
2021/07/30 01:08:03;;;;;;;;;;;;;;;18.72;59.68;99786.06;10298954;28;20273;-68
2021/07/30 01:13:04;;;;;;;;;;;;;;;18.63;59.95;99787.22;10300156;28;20032;-68
2021/07/30 01:18:05;;;;;;;;;;;;;;;18.56;60.06;99778.19;10308232;28;20578;-68
2021/07/30 01:23:07;;;;;;;;;;;;;;;18.50;60.32;99789.72;10317025;28;20017;-68
2021/07/30 01:28:09;;;;;;;;;;;;;;;18.43;60.83;99791.47;10313122;28;19957;-67
2021/07/30 01:33:10;;;;;;;;;;;;;;;18.35;60.98;99784.34;10307002;28;20043;-66
2021/07/30 01:38:11;;;;;;;;;;;;;;;18.30;61.16;99784.88;10307721;28;20434;-67
2021/07/30 01:43:12;;;;;;;;;;;;;;;18.29;61.20;99791.28;10308646;28;20015;-68
2021/07/30 01:48:14;;;;;;;;;;;;;;;18.26;61.36;99783.59;10317906;28;20024;-68
2021/07/30 01:53:15;;;;;;;;;;;;;;;18.22;61.25;99779.56;10317368;28;20047;-67
2021/07/30 01:58:16;;;;;;;;;;;;;;;18.13;61.02;99778.81;10314985;28;20020;-68
2021/07/30 02:03:18;;;;;;;;;;;;;;;18.13;60.65;99773.44;10303749;28;20392;-68
2021/07/30 02:08:19;;;;;;;;;;;;;;;18.06;60.82;99774.34;10294014;28;19921;-68
2021/07/30 02:18:40;;;;;;;;;;;;;;;18.07;61.23;99771.47;10312493;28;20016;-68
2021/07/30 02:23:42;;;;;;;;;;;;;;;18.01;61.74;99765.00;10317350;28;20012;-68
2021/07/30 02:28:44;;;;;;;;;;;;;;;17.98;61.85;99762.66;10300084;28;20567;-67
2021/07/30 02:33:45;;;;;;;;;;;;;;;17.94;62.25;99765.88;10305038;28;19993;-67
2021/07/30 02:38:46;;;;;;;;;;;;;;;17.86;62.37;99766.78;10311095;28;20127;-68
2021/07/30 02:43:47;;;;;;;;;;;;;;;17.80;62.67;99760.25;10311512;28;19953;-67
2021/07/30 02:48:49;;;;;;;;;;;;;;;17.71;62.92;99760.53;10304712;28;19928;-68
2021/07/30 02:53:50;;;;;;;;;;;;;;;17.64;63.26;99755.06;10305616;28;19953;-67
2021/07/30 02:58:51;;;;;;;;;;;;;;;17.61;63.33;99753.56;10308739;28;20008;-68
2021/07/30 03:03:52;;;;;;;;;;;;;;;17.54;63.72;99755.28;10304314;28;19964;-68
2021/07/30 03:08:55;;;;;;;;;;;;;;;17.48;63.87;99753.34;10301014;28;19921;-67
2021/07/30 03:13:56;;;;;;;;;;;;;;;17.37;64.34;99746.53;10299159;28;20357;-68
2021/07/30 03:18:58;;;;;;;;;;;;;;;17.37;64.49;99743.84;10304829;28;19977;-67
2021/07/30 03:23:59;;;;;;;;;;;;;;;17.37;64.35;99746.53;10305505;28;19937;-68
2021/07/30 03:29:00;;;;;;;;;;;;;;;17.33;64.45;99747.06;10312849;28;20021;-67
2021/07/30 03:34:01;;;;;;;;;;;;;;;17.24;64.86;99744.44;10303209;28;20423;-67
2021/07/30 03:39:03;;;;;;;;;;;;;;;17.20;64.99;99748.47;10304736;28;20568;-67
2021/07/30 03:44:04;;;;;;;;;;;;;;;17.13;65.08;99736.78;10319338;28;20299;-70
2021/07/30 03:49:05;;;;;;;;;;;;;;;17.11;65.39;99738.81;10307184;28;20406;-67
2021/07/30 03:54:08;;;;;;;;;;;;;;;17.05;65.61;99742.22;10317169;28;20029;-67
2021/07/30 03:59:09;;;;;;;;;;;;;;;17.02;65.68;99747.94;10298111;28;20017;-68
2021/07/30 04:04:11;;;;;;;;;;;;;;;17.03;65.70;99747.75;10300743;28;20016;-68
2021/07/30 04:09:12;;;;;;;;;;;;;;;17.06;65.67;99744.72;10308203;28;20009;-67
2021/07/30 04:14:13;;;;;;;;;;;;;;;17.06;65.75;99743.91;10305092;28;19933;-68
2021/07/30 04:19:15;;;;;;;;;;;;;;;17.11;65.59;99744.19;10306593;28;20415;-68
2021/07/30 04:24:16;;;;;;;;;;;;;;;17.16;65.59;99747.19;10293262;28;19930;-68
2021/07/30 04:29:18;;;;;;;;;;;;;;;17.14;65.69;99736.63;10295900;28;20005;-68
2021/07/30 04:34:19;;;;;;;;;;;;;;;17.21;65.57;99749.34;10307642;28;19929;-68
2021/07/30 04:39:20;;;;;;;;;;;;;;;17.25;65.51;99756.88;10301393;28;19977;-68
2021/07/30 04:44:21;;;;;;;;;;;;;;;17.28;65.52;99751.13;10303914;28;20026;-68
2021/07/30 04:49:23;;;;;;;;;;;;;;;17.34;65.27;99748.72;10302876;28;20032;-69
2021/07/30 04:54:32;;;;;;;;;;;;;;;17.36;65.31;99749.41;10300266;28;19960;-68
2021/07/30 04:59:34;;;;;;;;;;;;;;;17.33;65.72;99750.59;10292494;28;19921;-68
2021/07/30 05:04:36;;;;;;;;;;;;;;;17.34;65.55;99746.03;10295227;28;19985;-68
2021/07/30 05:09:37;;;;;;;;;;;;;;;17.38;65.94;99744.66;10301805;28;19971;-68
2021/07/30 05:14:38;;;;;;;;;;;;;;;17.39;65.82;99747.19;10296958;28;19973;-69
2021/07/30 05:19:40;;;;;;;;;;;;;;;17.49;65.40;99742.38;10286249;28;20364;-69
2021/07/30 05:24:41;;;;;;;;;;;;;;;17.63;65.01;99743.44;10287602;28;20009;-69
2021/07/30 05:29:42;;;;;;;;;;;;;;;17.71;64.97;99739.00;10295514;28;19921;-68
2021/07/30 05:34:44;;;;;;;;;;;;;;;17.75;64.63;99743.00;10305521;28;20366;-67
2021/07/30 05:39:45;;;;;;;;;;;;;;;17.83;64.71;99742.91;10300031;28;19953;-67
2021/07/30 05:44:46;;;;;;;;;;;;;;;17.95;64.92;99746.84;10297219;28;20020;-68
2021/07/30 05:49:48;;;;;;;;;;;;;;;18.01;64.71;99746.16;10299223;28;19953;-68
2021/07/30 05:54:49;;;;;;;;;;;;;;;18.11;64.43;99743.16;10309542;28;19957;-68
2021/07/30 05:59:50;;;;;;;;;;;;;;;18.20;64.31;99733.97;10316997;28;20286;-68
2021/07/30 06:04:52;;;;;;;;;;;;;;;18.27;64.23;99734.06;10326243;28;19929;-67
2021/07/30 06:09:53;;;;;;;;;;;;;;;18.38;63.86;99730.91;10326468;28;20282;-68
2021/07/30 06:14:55;;;;;;;;;;;;;;;18.50;64.28;99730.44;10299245;28;20008;-68
2021/07/30 06:19:56;;;;;;;;;;;;;;;18.69;63.27;99732.53;10302559;28;20414;-68
2021/07/30 06:25:00;;;;;;;;;;;;;;;18.89;62.92;99722.00;10299490;28;19944;-67
2021/07/30 06:30:03;;;;;;;;;;;;;;;19.07;60.87;99724.25;10317335;28;20380;-67
2021/07/30 06:35:05;;;;;;;;;;;;;;;19.26;59.80;99721.97;10313200;28;19922;-65
2021/07/30 06:40:07;;;;;;;;;;;;;;;19.42;59.62;99721.69;10312372;28;19953;-66
2021/07/30 06:45:08;;;;;;;;;;;;;;;19.61;57.08;99722.06;10314118;28;19968;-66
2021/07/30 06:50:10;;;;;;;;;;;;;;;19.66;56.50;99719.59;10314702;28;19944;-68
2021/07/30 06:55:11;;;;;;;;;;;;;;;19.68;56.70;99720.25;10314519;28;19926;-67
2021/07/30 07:00:13;;;;;;;;;;;;;;;19.85;55.94;99717.28;10305631;28;19965;-67
2021/07/30 07:05:16;;;;;;;;;;;;;;;19.88;55.70;99725.00;10304208;28;20014;-67
2021/07/30 07:10:17;;;;;;;;;;;;;;;19.94;55.99;99713.41;10300781;28;20328;-66
2021/07/30 07:15:19;;;;;;;;;;;;;;;19.98;55.87;99714.66;10314952;28;19969;-68
2021/07/30 07:20:20;;;;;;;;;;;;;;;20.02;55.58;99710.53;10295620;28;20020;-66
2021/07/30 07:25:21;;;;;;;;;;;;;;;20.26;55.79;99705.66;10314137;28;20017;-67
2021/07/30 07:30:23;;;;;;;;;;;;;;;20.42;55.02;99710.75;10302731;28;19926;-68
2021/07/30 07:35:24;;;;;;;;;;;;;;;20.66;54.07;99700.47;10306861;28;19952;-67
2021/07/30 07:40:25;;;;;;;;;;;;;;;20.93;51.52;99692.44;10304667;28;19961;-66
2021/07/30 07:45:27;;;;;;;;;;;;;;;20.96;52.46;99683.91;10286119;28;20012;-67
2021/07/30 07:50:28;;;;;;;;;;;;;;;21.36;52.49;99692.03;10291970;28;22527;-67
2021/07/30 07:55:29;;;;;;;;;;;;;;;21.60;51.23;99689.78;10319437;28;20646;-68
2021/07/30 08:00:30;;;;;;;;;;;;;;;21.66;49.19;99697.06;10303140;28;19926;-68
2021/07/30 08:05:32;;;;;;;;;;;;;;;21.73;50.26;99697.09;10305151;28;19925;-68
2021/07/30 08:10:33;;;;;;;;;;;;;;;21.91;47.90;99693.72;10288179;28;19953;-67
2021/07/30 08:15:34;;;;;;;;;;;;;;;22.00;49.02;99687.03;10283028;28;20017;-68
2021/07/30 08:20:36;;;;;;;;;;;;;;;22.30;47.64;99691.94;10301033;28;20012;-68
2021/07/30 08:25:37;;;;;;;;;;;;;;;22.28;47.05;99692.16;10305891;28;19925;-68
2021/07/30 08:30:42;;;;;;;;;;;;;;;22.44;47.03;99685.44;10292006;28;20390;-68
2021/07/30 08:35:43;;;;;;;;;;;;;;;22.51;47.22;99682.72;10304643;28;19991;-68
2021/07/30 08:40:45;;;;;;;;;;;;;;;22.70;46.96;99662.78;10294614;28;19954;-69
2021/07/30 08:45:50;;;;;;;;;;;;;;;22.86;46.50;99664.13;10309097;28;19929;-69
2021/07/30 08:50:54;;;;;;;;;;;;;;;23.21;44.89;99654.72;10336823;28;19926;-69
2021/07/30 08:55:55;;;;;;;;;;;;;;;23.26;45.00;99650.31;10302782;28;20009;-67
2021/07/30 09:00:56;;;;;;;;;;;;;;;23.35;44.91;99653.59;10298462;28;20430;-69
2021/07/30 09:06:09;;;;;;;;;;;;;;;23.60;44.69;99655.44;10296515;28;19973;-69
2021/07/30 09:11:25;;;;;;;;;;;;;;;23.77;44.28;99650.28;10298632;28;19953;-69
2021/07/30 09:16:26;;;;;;;;;;;;;;;24.31;42.62;99647.81;10303878;28;20351;-68
2021/07/30 09:21:30;;;;;;;;;;;;;;;24.39;42.69;99638.50;10297094;28;19921;-69
2021/07/30 09:26:31;;;;;;;;;;;;;;;24.57;43.08;99633.00;10304808;28;19921;-68
2021/07/30 09:31:40;;;;;;;;;;;;;;;24.71;42.89;99617.34;10308395;28;19929;-69
2021/07/30 09:36:42;;;;;;;;;;;;;;;25.02;41.47;99618.13;10306204;28;19926;-68
2021/07/30 09:41:50;;;;;;;;;;;;;;;24.74;42.17;99610.63;10306162;28;19934;-68
2021/07/30 09:47:02;;;;;;;;;;;;;;;25.03;40.56;99604.28;10308026;28;20428;-68
2021/07/30 09:52:06;;;;;;;;;;;;;;;25.84;39.83;99601.00;10300933;28;19958;-68
2021/07/30 09:57:07;;;;;;;;;;;;;;;25.76;39.95;99610.38;10304009;28;19960;-68
2021/07/30 10:02:13;;;;;;;;;;;;;;;26.06;39.19;99592.19;10294523;28;20607;-70
2021/07/30 10:07:21;;;;;;;;;;;;;;;26.58;38.01;99585.81;10320360;28;20402;-68
2021/07/30 10:12:23;;;;;;;;;;;;;;;26.33;38.09;99584.25;10304618;28;20012;-69
2021/07/30 10:17:30;;;;;;;;;;;;;;;25.70;38.39;99586.81;10314980;28;19956;-68
2021/07/30 10:22:38;;;;;;;;;;;;;;;25.61;41.37;99582.75;10296098;28;20447;-69
2021/07/30 10:27:42;;;;;;;;;;;;;;;26.21;38.71;99578.03;10316411;28;20114;-69
2021/07/30 10:32:44;;;;;;;;;;;;;;;25.83;39.28;99574.78;10316281;28;20710;-70
2021/07/30 10:37:45;;;;;;;;;;;;;;;25.46;40.06;99566.94;10305582;28;19977;-70
2021/07/30 10:43:05;;;;;;;;;;;;;;;26.46;39.37;99567.59;10310997;28;20360;-71
2021/07/30 10:48:15;;;;;;;;;;;;;;;26.63;38.76;99558.59;10296008;28;20056;-69
2021/07/30 10:53:36;;;;;;;;;;;;;;;27.47;37.77;99549.63;10300464;28;19957;-69
2021/07/30 10:58:40;;;;;;;;;;;;;;;28.04;36.38;99539.38;10316855;28;20017;-69
2021/07/30 11:03:51;;;;;;;;;;;;;;;27.54;36.19;99521.28;10299169;28;19922;-70
2021/07/30 11:08:59;;;;;;;;;;;;;;;27.81;35.92;99524.88;10311031;28;19950;-70
2021/07/30 11:14:00;;;;;;;;;;;;;;;28.03;36.15;99515.88;10310622;28;20009;-69
2021/07/30 11:19:02;;;;;;;;;;;;;;;28.07;34.97;99519.72;10318686;28;20009;-70
2021/07/30 11:24:04;;;;;;;;;;;;;;;28.49;35.04;99519.03;10308140;28;19934;-70
2021/07/30 11:29:15;;;;;;;;;;;;;;;28.52;34.30;99514.97;10303283;28;20025;-69
2021/07/30 11:34:17;;;;;;;;;;;;;;;28.68;33.98;99511.31;10300134;28;20040;-70
2021/07/30 11:39:19;;;;;;;;;;;;;;;29.14;33.53;99504.50;10306021;28;20013;-69
2021/07/30 11:44:20;;;;;;;;;;;;;;;29.54;32.28;99492.94;10298644;28;20024;-69
2021/07/30 11:49:29;;;;;;;;;;;;;;;29.25;33.44;99498.84;10306388;28;19930;-69
2021/07/30 11:54:30;;;;;;;;;;;;;;;29.47;33.70;99492.41;10302155;28;20041;-70
2021/07/30 11:59:42;;;;;;;;;;;;;;;29.94;31.39;99475.03;10309779;28;20401;-69
2021/07/30 12:04:53;;;;;;;;;;;;;;;29.67;32.91;99468.91;10305572;28;20376;-71
2021/07/30 12:09:58;;;;;;;;;;;;;;;29.94;31.67;99464.06;10306954;28;19968;-69
2021/07/30 12:15:00;;;;;;;;;;;;;;;29.22;33.84;99462.94;10304044;28;20296;-70
2021/07/30 12:20:03;;;;;;;;;;;;;;;28.95;33.66;99452.09;10308253;28;19976;-69
2021/07/30 12:25:05;;;;;;;;;;;;;;;29.07;33.51;99444.47;10309334;28;20016;-69
2021/07/30 12:30:07;;;;;;;;;;;;;;;29.40;33.17;99447.97;10314965;28;20377;-69
2021/07/30 12:35:14;;;;;;;;;;;;;;;29.26;33.28;99422.97;10304076;28;20431;-69
2021/07/30 12:40:19;;;;;;;;;;;;;;;29.58;32.40;99422.78;10302184;28;20012;-69
2021/07/30 12:45:20;;;;;;;;;;;;;;;29.62;31.71;99415.69;10304210;28;20135;-68
2021/07/30 12:50:22;;;;;;;;;;;;;;;29.69;31.78;99396.22;10298163;28;19996;-69
2021/07/30 12:55:23;;;;;;;;;;;;;;;29.40;32.24;99398.63;10304453;28;19922;-69
2021/07/30 13:00:31;;;;;;;;;;;;;;;29.17;32.43;99399.84;10296837;28;19961;-69
2021/07/30 13:05:36;;;;;;;;;;;;;;;29.04;33.14;99390.22;10290607;28;19929;-69
2021/07/30 13:10:37;;;;;;;;;;;;;;;28.93;32.96;99367.44;10299896;28;19928;-69
2021/07/30 13:15:38;;;;;;;;;;;;;;;29.26;32.43;99365.41;10292357;28;20462;-69
2021/07/30 13:20:40;;;;;;;;;;;;;;;29.48;32.19;99356.97;10300290;28;20093;-70
2021/07/30 13:25:42;;;;;;;;;;;;;;;29.23;32.60;99350.34;10300595;28;20021;-69
2021/07/30 13:30:43;;;;;;;;;;;;;;;29.35;32.96;99343.78;10306336;28;19922;-69
2021/07/30 13:35:45;;;;;;;;;;;;;;;29.08;32.87;99331.09;10306116;28;19953;-68
2021/07/30 13:40:48;;;;;;;;;;;;;;;28.81;34.35;99323.00;10308644;28;19922;-72
2021/07/30 13:45:51;;;;;;;;;;;;;;;28.87;33.50;99319.19;10305337;28;19960;-69
2021/07/30 13:50:54;;;;;;;;;;;;;;;29.12;33.04;99304.78;10301398;28;19944;-69
2021/07/30 13:55:56;;;;;;;;;;;;;;;29.16;33.52;99288.63;10318254;28;20417;-69
2021/07/30 14:00:57;;;;;;;;;;;;;;;28.53;33.43;99314.91;10304536;28;19957;-70
2021/07/30 14:05:59;;;;;;;;;;;;;;;28.36;34.09;99286.91;10308646;28;20028;-70
2021/07/30 14:11:00;;;;;;;;;;;;;;;28.18;33.49;99288.97;10291379;28;22143;-69
2021/07/30 14:16:02;;;;;;;;;;;;;;;28.00;34.39;99279.28;10299757;28;19925;-68
2021/07/30 14:21:03;;;;;;;;;;;;;;;28.18;33.66;99274.47;10293730;28;20040;-69
2021/07/30 14:26:04;;;;;;;;;;;;;;;28.20;32.77;99261.34;10299151;28;19972;-67
2021/07/30 14:31:11;;;;;;;;;;;;;;;28.06;33.30;99261.00;10310775;28;20209;-67
2021/07/30 14:36:14;;;;;;;;;;;;;;;28.08;33.06;99247.06;10302175;28;20025;-71
2021/07/30 14:41:17;;;;;;;;;;;;;;;28.08;32.66;99253.34;10299940;28;20352;-67
2021/07/30 14:46:35;;;;;;;;;;;;;;;27.94;32.01;99257.56;10300102;28;20026;-68
2021/07/30 14:51:36;;;;;;;;;;;;;;;27.84;32.85;99247.41;10314031;28;19922;-68
2021/07/30 14:56:38;;;;;;;;;;;;;;;27.80;32.80;99258.03;10306035;28;20376;-71
2021/07/30 15:01:40;;;;;;;;;;;;;;;27.80;33.03;99263.50;10305624;28;19929;-69
2021/07/30 15:12:33;;;;;;;;;;;;;;;27.67;33.57;99256.56;10473874;27;19939;-64
2021/07/30 15:17:34;;;;;;;;;;;;;;;27.73;33.52;99251.97;10457766;27;19958;-63
2021/07/30 15:22:36;;;;;;;;;;;;;;;27.70;34.10;99255.22;10454298;27;20372;-63
2021/07/30 15:27:38;;;;;;;;;;;;;;;27.73;34.08;99243.75;10444430;27;19930;-63
2021/07/30 15:32:39;;;;;;;;;;;;;;;27.82;34.05;99255.88;10456755;27;19985;-63
2021/07/30 15:37:40;;;;;;;;;;;;;;;27.85;34.44;99244.41;10463238;27;19924;-63
2021/07/30 15:42:42;;;;;;;;;;;;;;;27.89;34.59;99249.34;10462756;27;20141;-65
2021/07/30 15:47:43;;;;;;;;;;;;;;;27.96;34.42;99255.41;10462099;27;19936;-65
2021/07/30 15:52:45;;;;;;;;;;;;;;;27.92;34.77;99262.50;10461794;27;20025;-63
2021/07/30 15:57:46;;;;;;;;;;;;;;;27.85;34.89;99255.34;10463393;27;20017;-64
2021/07/30 16:02:47;;;;;;;;;;;;;;;27.73;35.08;99251.97;10463723;27;20023;-64
2021/07/30 16:07:48;;;;;;;;;;;;;;;27.49;35.68;99255.03;10459794;27;20472;-63
2021/07/30 16:12:53;;;;;;;;;;;;;;;27.42;35.49;99257.16;10481076;27;20488;-63
2021/07/30 16:17:55;;;;;;;;;;;;;;;27.46;35.96;99261.03;10469931;27;19999;-63
2021/07/30 16:22:56;;;;;;;;;;;;;;;27.44;35.55;99252.28;10452197;27;20004;-64
2021/07/30 16:27:58;;;;;;;;;;;;;;;27.49;36.06;99257.78;10445690;28;20047;-64
2021/07/30 16:32:59;;;;;;;;;;;;;;;27.30;36.29;99245.53;10447727;28;19986;-64
2021/07/30 16:38:00;;;;;;;;;;;;;;;27.12;37.01;99247.53;10457805;28;20612;-63
2021/07/30 16:43:02;;;;;;;;;;;;;;;26.96;36.41;99234.81;10475411;28;19933;-67
2021/07/30 16:48:06;;;;;;;;;;;;;;;26.88;36.67;99243.47;10471925;28;20049;-64
2021/07/30 16:53:07;;;;;;;;;;;;;;;26.95;37.03;99244.09;10476078;28;20113;-63
2021/07/30 16:58:09;;;;;;;;;;;;;;;26.92;36.60;99242.69;10475309;28;19940;-64
2021/07/30 17:03:10;;;;;;;;;;;;;;;26.92;36.53;99241.88;10470571;28;19952;-64
2021/07/30 17:08:11;;;;;;;;;;;;;;;26.82;37.05;99242.56;10473348;28;20014;-64
2021/07/30 17:13:13;;;;;;;;;;;;;;;26.72;36.99;99242.44;10470062;28;20322;-64
2021/07/30 17:18:14;;;;;;;;;;;;;;;26.68;36.79;99241.31;10474363;28;20000;-64
2021/07/30 17:23:15;;;;;;;;;;;;;;;26.71;36.98;99236.19;10478453;28;20024;-64
2021/07/30 17:28:17;;;;;;;;;;;;;;;26.70;37.53;99239.16;10471612;28;19990;-64
2021/07/30 17:33:18;;;;;;;;;;;;;;;26.59;37.78;99232.72;10475658;28;19967;-64
2021/07/30 17:38:20;;;;;;;;;;;;;;;26.50;37.76;99234.22;10474329;28;20100;-64
2021/07/30 17:43:21;;;;;;;;;;;;;;;26.40;37.81;99252.13;10473905;28;19928;-60
2021/07/30 17:48:22;;;;;;;;;;;;;;;26.23;38.18;99248.63;10472805;28;20014;-65
2021/07/30 17:53:24;;;;;;;;;;;;;;;26.23;37.95;99245.88;10476303;28;20093;-61
2021/07/30 17:58:26;;;;;;;;;;;;;;;26.10;38.24;99247.88;10472494;28;20011;-61
2021/07/30 18:03:27;;;;;;;;;;;;;;;25.99;38.66;99240.63;10476582;28;19943;-60
2021/07/30 18:08:29;;;;;;;;;;;;;;;25.92;38.87;99245.41;10470704;28;19933;-63
2021/07/30 18:13:30;;;;;;;;;;;;;;;25.82;38.23;99239.78;10461175;28;19930;-63
2021/07/30 18:18:31;;;;;;;;;;;;;;;25.73;38.10;99248.38;10429552;28;20115;-63
2021/07/30 18:23:33;;;;;;;;;;;;;;;25.64;37.47;99244.44;10445405;28;20012;-63
2021/07/30 18:28:34;;;;;;;;;;;;;;;25.54;37.98;99242.34;10448228;28;20073;-63
2021/07/30 18:33:36;;;;;;;;;;;;;;;25.45;37.80;99251.19;10463413;28;19935;-63
2021/07/30 18:38:37;;;;;;;;;;;;;;;25.31;38.07;99243.31;10466831;28;20026;-64
2021/07/30 18:43:38;;;;;;;;;;;;;;;25.29;38.43;99253.56;10453197;28;19924;-62
2021/07/30 18:48:40;;;;;;;;;;;;;;;25.23;38.60;99255.38;10465275;28;20022;-63
2021/07/30 18:53:42;;;;;;;;;;;;;;;25.19;38.68;99256.09;10467700;28;20048;-63
2021/07/30 18:58:45;;;;;;;;;;;;;;;25.15;38.97;99254.97;10471129;28;20011;-64
2021/07/30 19:03:46;;;;;;;;;;;;;;;25.09;39.36;99258.66;10467660;28;20036;-63
2021/07/30 19:08:49;;;;;;;;;;;;;;;25.00;39.51;99263.66;10473395;28;19971;-62
2021/07/30 19:13:50;;;;;;;;;;;;;;;24.94;40.07;99262.72;10463685;28;20634;-63
2021/07/30 19:18:52;;;;;;;;;;;;;;;24.92;40.41;99270.34;10472543;28;19931;-62
2021/07/30 19:23:53;;;;;;;;;;;;;;;24.86;40.74;99276.72;10452671;28;19935;-63
2021/07/30 19:28:55;;;;;;;;;;;;;;;24.84;41.26;99287.03;10474524;28;19928;-64
2021/07/30 19:33:56;;;;;;;;;;;;;;;24.84;40.88;99284.31;10471294;28;19963;-63
2021/07/30 19:38:57;;;;;;;;;;;;;;;24.76;41.23;99298.28;10470149;28;19967;-63
2021/07/30 19:43:59;;;;;;;;;;;;;;;24.61;41.90;99299.63;10471219;28;20509;-63
2021/07/30 19:49:00;;;;;;;;;;;;;;;24.52;42.42;99309.19;10467529;28;20059;-63
2021/07/30 19:54:06;;;;;;;;;;;;;;;24.44;42.40;99312.25;10463074;28;20011;-63
2021/07/30 19:59:08;;;;;;;;;;;;;;;24.45;42.19;99305.75;10472716;28;20073;-62
2021/07/30 20:04:09;;;;;;;;;;;;;;;24.47;42.54;99322.66;10457749;28;20054;-62
2021/07/30 20:09:11;;;;;;;;;;;;;;;24.43;42.63;99316.03;10479991;28;19960;-61
2021/07/30 20:14:12;;;;;;;;;;;;;;;24.33;42.97;99322.88;10453575;28;20046;-63
2021/07/30 20:19:13;;;;;;;;;;;;;;;24.20;42.69;99319.59;10478971;28;20013;-65
2021/07/30 20:24:15;;;;;;;;;;;;;;;24.05;43.11;99341.78;10476655;28;19960;-61
2021/07/30 20:29:16;;;;;;;;;;;;;;;23.96;43.37;99339.41;10480065;28;19928;-62
2021/07/30 20:34:17;;;;;;;;;;;;;;;23.84;43.66;99343.97;10476344;28;20002;-64
2021/07/30 20:39:19;;;;;;;;;;;;;;;23.76;43.61;99349.72;10463349;28;20038;-63
2021/07/30 20:44:20;;;;;;;;;;;;;;;23.70;43.81;99343.34;10475770;28;21181;-62
2021/07/30 20:49:22;;;;;;;;;;;;;;;23.59;43.82;99350.38;10477660;28;20015;-62
2021/07/30 20:54:23;;;;;;;;;;;;;;;23.47;43.89;99346.81;10477429;28;20027;-62
2021/07/30 20:59:24;;;;;;;;;;;;;;;23.33;44.46;99345.31;10472347;28;20503;-63
2021/07/30 21:04:26;;;;;;;;;;;;;;;23.33;44.48;99350.75;10479337;28;19955;-63
2021/07/30 21:09:27;;;;;;;;;;;;;;;23.23;44.94;99356.75;10475999;28;20047;-62
2021/07/30 21:14:28;;;;;;;;;;;;;;;23.14;45.12;99361.66;10468054;28;20542;-63
2021/07/30 21:19:30;;;;;;;;;;;;;;;23.03;45.56;99356.94;10455211;28;20452;-62
2021/07/30 21:24:31;;;;;;;;;;;;;;;22.93;45.95;99358.31;10449385;28;19940;-63
2021/07/30 21:29:33;;;;;;;;;;;;;;;22.87;46.24;99367.34;10458307;28;19936;-63
2021/07/30 21:34:34;;;;;;;;;;;;;;;22.68;46.61;99360.25;10446606;28;21012;-60
2021/07/30 21:39:37;;;;;;;;;;;;;;;22.59;46.99;99367.84;10441082;28;20015;-63
2021/07/30 21:44:38;;;;;;;;;;;;;;;22.58;47.34;99364.31;10448395;28;19963;-62
2021/07/30 21:49:39;;;;;;;;;;;;;;;22.55;47.11;99363.94;10441454;28;20369;-62
2021/07/30 21:54:41;;;;;;;;;;;;;;;22.46;47.57;99371.53;10441829;28;19982;-62
2021/07/30 21:59:42;;;;;;;;;;;;;;;22.38;47.57;99377.22;10443097;28;20343;-62
2021/07/30 22:04:43;;;;;;;;;;;;;;;22.31;47.82;99387.25;10445060;28;19971;-62
2021/07/30 22:09:45;;;;;;;;;;;;;;;22.21;48.02;99387.78;10445772;28;20020;-62
2021/07/30 22:14:46;;;;;;;;;;;;;;;22.16;48.08;99384.88;10454330;28;20027;-63
2021/07/30 22:19:47;;;;;;;;;;;;;;;22.10;48.29;99396.59;10444852;28;20336;-62
2021/07/30 22:24:49;;;;;;;;;;;;;;;22.02;48.47;99397.69;10442484;28;19925;-62
2021/07/30 22:29:50;;;;;;;;;;;;;;;22.05;48.59;99399.97;10440482;28;20023;-62
2021/07/30 22:34:51;;;;;;;;;;;;;;;21.98;48.88;99405.44;10453648;28;19960;-63
2021/07/30 22:39:54;;;;;;;;;;;;;;;21.86;49.51;99397.19;10467900;28;19925;-62
2021/07/30 22:44:56;;;;;;;;;;;;;;;21.81;49.77;99405.16;10447652;28;19940;-62
2021/07/30 22:49:57;;;;;;;;;;;;;;;21.72;49.86;99411.84;10441767;28;20084;-63
2021/07/30 22:54:59;;;;;;;;;;;;;;;21.64;49.90;99407.50;10439417;28;19924;-62
2021/07/30 23:00:00;;;;;;;;;;;;;;;21.50;50.58;99420.31;10444720;28;19950;-62
2021/07/30 23:05:02;;;;;;;;;;;;;;;21.51;50.03;99413.00;10449971;28;19974;-62
2021/07/30 23:10:03;;;;;;;;;;;;;;;21.34;50.21;99429.69;10443148;28;19989;-62
2021/07/30 23:15:05;;;;;;;;;;;;;;;21.35;50.53;99431.38;10442866;28;20427;-62
2021/07/30 23:20:07;;;;;;;;;;;;;;;21.38;49.53;99427.41;10443277;28;20394;-62
2021/07/30 23:25:08;;;;;;;;;;;;;;;21.18;49.09;99443.69;10447729;28;19960;-62
2021/07/30 23:30:10;;;;;;;;;;;;;;;21.13;49.30;99446.22;10453546;28;19950;-62
2021/07/30 23:35:11;;;;;;;;;;;;;;;21.15;49.26;99454.94;10458833;28;20155;-61
2021/07/30 23:40:12;;;;;;;;;;;;;;;21.11;48.97;99449.13;10458429;28;19932;-62
2021/07/30 23:45:14;;;;;;;;;;;;;;;21.09;48.90;99467.47;10468435;28;19973;-61
2021/07/30 23:50:15;;;;;;;;;;;;;;;21.04;49.76;99467.25;10457845;28;19928;-62
2021/07/30 23:55:17;;;;;;;;;;;;;;;20.98;49.96;99466.22;10457091;28;20030;-61
